Time,TemperatureF,DewpointF,PressureIn,WindDirection,WindDirectionDegrees,WindSpeedMPH,WindSpeedGustMPH,Humidity,HourlyPrecipIn,Conditions,Clouds,dailyrainin,SoftwareType,DateUTC
2013-12-01 00:01:00,31.9,14.9,30.38,NE,45,2.0,2.0,49,0.00,,OVC250,0.00,VWS V14.01,2013-12-01 05:01:00,
2013-12-01 00:06:00,32.0,14.6,30.37,NE,45,2.0,2.0,48,0.00,,OVC250,0.00,VWS V14.01,2013-12-01 05:06:00,
2013-12-01 00:11:00,32.0,14.1,30.37,NE,45,2.0,2.0,47,0.00,,OVC250,0.00,VWS V14.01,2013-12-01 05:11:00,
2013-12-01 00:16:00,32.4,13.9,30.36,NE,45,2.0,2.0,46,0.00,,OVC250,0.00,VWS V14.01,2013-12-01 05:16:00,
2013-12-01 00:21:00,32.8,13.8,30.36,NE,45,2.0,2.0,45,0.00,,OVC250,0.00,VWS V14.01,2013-12-01 05:21:00,
2013-12-01 00:26:00,32.9,12.3,30.36,NE,45,2.0,2.0,42,0.00,,OVC250,0.00,VWS V14.01,2013-12-01 05:26:00,
2013-12-01 00:31:00,33.5,12.9,30.36,NE,45,2.0,2.0,42,0.00,,OVC250,0.00,VWS V14.01,2013-12-01 05:31:00,
2013-12-01 00:36:00,33.5,13.4,30.36,NE,45,2.0,2.0,43,0.00,,OVC250,0.00,VWS V14.01,2013-12-01 05:36:00,
2013-12-01 00:41:00,33.8,14.2,30.36,NE,45,2.0,2.0,44,0.00,,OVC250,0.00,VWS V14.01,2013-12-01 05:41:00,
2013-12-01 00:46:00,34.0,14.4,30.36,NE,45,2.0,2.0,44,0.00,,OVC250,0.00,VWS V14.01,2013-12-01 05:46:00,
2013-12-01 00:51:00,34.2,11.8,30.36,NE,45,2.0,2.0,39,0.00,,OVC250,0.00,VWS V14.01,2013-12-01 05:51:00,
2013-12-01 00:56:00,34.4,13.1,30.36,NE,45,2.0,2.0,41,0.00,,OVC050,0.00,VWS V14.01,2013-12-01 05:56:00,
2013-12-01 01:01:00,34.6,12.8,30.37,NE,45,2.0,2.0,40,0.00,,OVC050,0.00,VWS V14.01,2013-12-01 06:01:00,
2013-12-01 01:06:00,34.9,13.0,30.37,NE,45,2.0,2.0,40,0.00,,OVC050,0.00,VWS V14.01,2013-12-01 06:06:00,
2013-12-01 01:11:00,35.1,14.3,30.36,NE,45,2.0,2.0,42,0.00,,OVC050,0.00,VWS V14.01,2013-12-01 06:11:00,
2013-12-01 01:16:00,35.1,13.8,30.36,NE,45,2.0,2.0,41,0.00,,OVC050,0.00,VWS V14.01,2013-12-01 06:16:00,
2013-12-01 01:21:00,35.3,14.0,30.36,NE,45,2.0,2.0,41,0.00,,OVC050,0.00,VWS V14.01,2013-12-01 06:21:00,
2013-12-01 01:26:00,35.6,14.2,30.36,NE,45,2.0,2.0,41,0.00,,OVC050,0.00,VWS V14.01,2013-12-01 06:26:00,
2013-12-01 01:31:00,35.8,14.4,30.36,NE,45,2.0,2.0,41,0.00,,OVC050,0.00,VWS V14.01,2013-12-01 06:31:00,
2013-12-01 01:36:00,36.0,15.7,30.35,NE,45,2.0,2.0,43,0.00,,OVC050,0.00,VWS V14.01,2013-12-01 06:36:00,
2013-12-01 01:41:00,36.0,16.2,30.35,NE,45,2.0,2.0,44,0.00,,OVC050,0.00,VWS V14.01,2013-12-01 06:41:00,
2013-12-01 01:46:00,36.2,16.4,30.35,NE,45,2.0,2.0,44,0.00,,OVC050,0.00,VWS V14.01,2013-12-01 06:46:00,
2013-12-01 01:51:00,36.4,16.6,30.35,NE,45,2.0,2.0,44,0.00,,OVC050,0.00,VWS V14.01,2013-12-01 06:51:00,
2013-12-01 01:56:00,36.4,17.1,30.35,NE,45,2.0,2.0,45,0.00,,OVC055,0.00,VWS V14.01,2013-12-01 06:56:00,
2013-12-01 02:01:00,36.4,16.6,30.35,NE,45,2.0,2.0,44,0.00,,OVC055,0.00,VWS V14.01,2013-12-01 07:01:00,
2013-12-01 02:06:00,36.4,16.6,30.35,NE,45,2.0,2.0,44,0.00,,OVC055,0.00,VWS V14.01,2013-12-01 07:06:00,
2013-12-01 02:11:00,36.4,17.1,30.34,NE,45,2.0,2.0,45,0.00,,OVC055,0.00,VWS V14.01,2013-12-01 07:11:00,
2013-12-01 02:16:00,36.2,17.4,30.34,NE,45,2.0,2.0,46,0.00,,OVC055,0.00,VWS V14.01,2013-12-01 07:16:00,
2013-12-01 02:21:00,36.0,17.2,30.33,NE,45,2.0,2.0,46,0.00,,OVC055,0.00,VWS V14.01,2013-12-01 07:21:00,
2013-12-01 02:26:00,35.8,17.6,30.33,NE,45,2.0,2.0,47,0.00,,OVC055,0.00,VWS V14.01,2013-12-01 07:26:00,
2013-12-01 02:31:00,35.6,16.9,30.33,NE,45,2.0,2.0,46,0.00,,OVC055,0.00,VWS V14.01,2013-12-01 07:31:00,
2013-12-01 02:36:00,35.6,16.4,30.33,NE,45,2.0,2.0,45,0.00,,OVC055,0.00,VWS V14.01,2013-12-01 07:36:00,
2013-12-01 02:41:00,35.6,15.9,30.32,NE,45,2.0,2.0,44,0.00,,OVC055,0.00,VWS V14.01,2013-12-01 07:41:00,
2013-12-01 02:46:00,35.6,15.9,30.32,NE,45,2.0,2.0,44,0.00,,OVC055,0.00,VWS V14.01,2013-12-01 07:46:00,
2013-12-01 02:51:00,35.5,16.3,30.32,NE,45,2.0,2.0,45,0.00,,OVC055,0.00,VWS V14.01,2013-12-01 07:51:00,
2013-12-01 02:56:00,35.3,16.1,30.32,NE,45,2.0,2.0,45,0.00,,FEW060,0.00,VWS V14.01,2013-12-01 07:56:00,
2013-12-01 03:01:00,34.9,15.7,30.32,NE,45,2.0,2.0,45,0.00,,FEW060,0.00,VWS V14.01,2013-12-01 08:01:00,
2013-12-01 03:06:00,34.7,15.6,30.31,NE,45,2.0,2.0,45,0.00,,FEW060,0.00,VWS V14.01,2013-12-01 08:06:00,
2013-12-01 03:11:00,34.4,15.3,30.31,NE,45,2.0,2.0,45,0.00,,FEW060,0.00,VWS V14.01,2013-12-01 08:11:00,
2013-12-01 03:16:00,34.4,14.8,30.32,NE,45,2.0,2.0,44,0.00,,FEW060,0.00,VWS V14.01,2013-12-01 08:16:00,
2013-12-01 03:21:00,34.2,14.1,30.31,NE,45,2.0,2.0,43,0.00,,FEW060,0.00,VWS V14.01,2013-12-01 08:21:00,
2013-12-01 03:26:00,34.0,13.3,30.31,NE,45,2.0,2.0,42,0.00,,FEW060,0.00,VWS V14.01,2013-12-01 08:26:00,
2013-12-01 03:31:00,34.0,13.3,30.31,NE,45,2.0,2.0,42,0.00,,FEW060,0.00,VWS V14.01,2013-12-01 08:31:00,
2013-12-01 03:36:00,33.8,13.1,30.30,NE,45,2.0,2.0,42,0.00,,FEW060,0.00,VWS V14.01,2013-12-01 08:36:00,
2013-12-01 03:41:00,33.7,12.5,30.30,NE,45,2.0,2.0,41,0.00,,FEW060,0.00,VWS V14.01,2013-12-01 08:41:00,
2013-12-01 03:46:00,33.5,12.3,30.30,NE,45,2.0,2.0,41,0.00,,FEW060,0.00,VWS V14.01,2013-12-01 08:46:00,
2013-12-01 03:51:00,33.5,12.3,30.30,NE,45,2.0,2.0,41,0.00,,FEW060,0.00,VWS V14.01,2013-12-01 08:51:00,
2013-12-01 03:56:00,33.5,11.8,30.30,NE,45,2.0,2.0,40,0.00,,FEW060,0.00,VWS V14.01,2013-12-01 08:56:00,
2013-12-01 04:01:00,33.3,11.0,30.29,NE,45,2.0,2.0,39,0.00,,FEW060,0.00,VWS V14.01,2013-12-01 09:01:00,
2013-12-01 04:06:00,33.3,11.0,30.29,NE,45,2.0,2.0,39,0.00,,FEW060,0.00,VWS V14.01,2013-12-01 09:06:00,
2013-12-01 04:11:00,33.1,11.4,30.30,NE,45,2.0,2.0,40,0.00,,FEW060,0.00,VWS V14.01,2013-12-01 09:11:00,
2013-12-01 04:16:00,32.9,9.5,30.30,NE,45,2.0,2.0,37,0.00,,FEW060,0.00,VWS V14.01,2013-12-01 09:16:00,
2013-12-01 04:21:00,32.8,10.0,30.30,NE,45,2.0,2.0,38,0.00,,FEW060,0.00,VWS V14.01,2013-12-01 09:21:00,
2013-12-01 04:26:00,32.8,10.6,30.30,NE,45,2.0,2.0,39,0.00,,FEW060,0.00,VWS V14.01,2013-12-01 09:26:00,
2013-12-01 04:31:00,32.8,9.4,30.30,NE,45,2.0,2.0,37,0.00,,FEW060,0.00,VWS V14.01,2013-12-01 09:31:00,
2013-12-01 04:36:00,32.9,8.3,30.30,NE,45,2.0,2.0,35,0.00,,FEW060,0.00,VWS V14.01,2013-12-01 09:36:00,
2013-12-01 04:41:00,33.3,7.3,30.30,NE,45,2.0,2.0,33,0.00,,FEW060,0.00,VWS V14.01,2013-12-01 09:41:00,
2013-12-01 04:46:00,33.5,7.5,30.30,NE,45,2.0,2.0,33,0.00,,FEW060,0.00,VWS V14.01,2013-12-01 09:46:00,
2013-12-01 04:51:00,33.5,6.8,30.30,NE,45,2.0,2.0,32,0.00,,FEW060,0.00,VWS V14.01,2013-12-01 09:51:00,
2013-12-01 04:56:00,33.7,-1.1,30.30,NE,45,2.0,2.0,22,0.00,,SCT250,0.00,VWS V14.01,2013-12-01 09:56:00,
2013-12-01 05:01:00,33.7,4.1,30.30,NE,45,2.0,2.0,28,0.00,,SCT250,0.00,VWS V14.01,2013-12-01 10:01:00,
2013-12-01 05:06:00,33.7,4.8,30.30,NE,45,2.0,2.0,29,0.00,,SCT250,0.00,VWS V14.01,2013-12-01 10:06:00,
2013-12-01 05:11:00,33.5,3.1,30.30,NE,45,2.0,2.0,27,0.00,,SCT250,0.00,VWS V14.01,2013-12-01 10:11:00,
2013-12-01 05:16:00,33.5,5.4,30.29,NE,45,2.0,2.0,30,0.00,,SCT250,0.00,VWS V14.01,2013-12-01 10:16:00,
2013-12-01 05:21:00,33.5,5.4,30.29,NE,45,2.0,2.0,30,0.00,,SCT250,0.00,VWS V14.01,2013-12-01 10:21:00,
2013-12-01 05:26:00,33.5,6.1,30.28,NE,45,2.0,2.0,31,0.00,,SCT250,0.00,VWS V14.01,2013-12-01 10:26:00,
2013-12-01 05:31:00,33.3,7.3,30.28,NE,45,2.0,2.0,33,0.00,,SCT250,0.00,VWS V14.01,2013-12-01 10:31:00,
2013-12-01 05:36:00,32.9,6.3,30.28,NE,45,2.0,2.0,32,0.00,,SCT250,0.00,VWS V14.01,2013-12-01 10:36:00,
2013-12-01 05:41:00,32.8,6.2,30.29,NE,45,2.0,2.0,32,0.00,,SCT250,0.00,VWS V14.01,2013-12-01 10:41:00,
2013-12-01 05:46:00,32.8,5.5,30.29,NE,45,2.0,2.0,31,0.00,,SCT250,0.00,VWS V14.01,2013-12-01 10:46:00,
2013-12-01 05:51:00,32.8,4.8,30.29,NE,45,2.0,2.0,30,0.00,,SCT250,0.00,VWS V14.01,2013-12-01 10:51:00,
2013-12-01 05:56:00,32.6,4.6,30.29,NE,45,2.0,2.0,30,0.00,,FEW250,0.00,VWS V14.01,2013-12-01 10:56:00,
2013-12-01 06:01:00,32.4,4.4,30.29,NE,45,2.0,2.0,30,0.00,,FEW250,0.00,VWS V14.01,2013-12-01 11:01:00,
2013-12-01 06:06:00,32.4,1.4,30.28,NE,45,2.0,2.0,26,0.00,,FEW250,0.00,VWS V14.01,2013-12-01 11:06:00,
2013-12-01 06:11:00,32.2,3.5,30.28,NE,45,2.0,2.0,29,0.00,,FEW250,0.00,VWS V14.01,2013-12-01 11:11:00,
2013-12-01 06:16:00,32.2,3.5,30.29,NE,45,2.0,2.0,29,0.00,,FEW250,0.00,VWS V14.01,2013-12-01 11:16:00,
2013-12-01 06:21:00,32.0,2.6,30.29,SSW,202,2.0,2.0,28,0.00,,FEW250,0.00,VWS V14.01,2013-12-01 11:21:00,
2013-12-01 06:26:00,31.9,2.5,30.28,SSW,202,2.0,2.0,28,0.00,,FEW250,0.00,VWS V14.01,2013-12-01 11:26:00,
2013-12-01 06:31:00,31.9,-0.8,30.28,South,180,2.0,2.0,24,0.00,,FEW250,0.00,VWS V14.01,2013-12-01 11:31:00,
2013-12-01 06:36:00,31.7,-3.8,30.28,South,180,2.0,2.0,21,0.00,,FEW250,0.00,VWS V14.01,2013-12-01 11:36:00,
2013-12-01 06:41:00,31.5,-1.1,30.28,South,180,2.0,2.0,24,0.00,,FEW250,0.00,VWS V14.01,2013-12-01 11:41:00,
2013-12-01 06:46:00,31.5,0.6,30.28,South,180,2.0,2.0,26,0.00,,FEW250,0.00,VWS V14.01,2013-12-01 11:46:00,
2013-12-01 06:51:00,31.3,-0.4,30.28,South,180,2.0,2.0,25,0.00,,FEW250,0.00,VWS V14.01,2013-12-01 11:51:00,
2013-12-01 06:56:00,31.3,0.4,30.28,South,180,2.0,2.0,26,0.00,,BKN250,0.00,VWS V14.01,2013-12-01 11:56:00,
2013-12-01 07:01:00,31.3,-1.3,30.28,South,180,2.0,2.0,24,0.00,,BKN250,0.00,VWS V14.01,2013-12-01 12:01:00,
2013-12-01 07:06:00,31.3,-1.3,30.28,South,180,2.0,2.0,24,0.00,,BKN250,0.00,VWS V14.01,2013-12-01 12:06:00,
2013-12-01 07:11:00,31.3,-0.4,30.28,South,180,2.0,2.0,25,0.00,,BKN250,0.00,VWS V14.01,2013-12-01 12:11:00,
2013-12-01 07:16:00,31.3,-1.3,30.28,South,180,2.0,2.0,24,0.00,,BKN250,0.00,VWS V14.01,2013-12-01 12:16:00,
2013-12-01 07:21:00,31.3,-1.3,30.28,South,180,2.0,2.0,24,0.00,,BKN250,0.00,VWS V14.01,2013-12-01 12:21:00,
2013-12-01 07:26:00,31.3,-1.3,30.28,South,180,2.0,2.0,24,0.00,,BKN250,0.00,VWS V14.01,2013-12-01 12:26:00,
2013-12-01 07:31:00,31.3,-3.1,30.28,South,180,2.0,2.0,22,0.00,,BKN250,0.00,VWS V14.01,2013-12-01 12:31:00,
2013-12-01 07:36:00,31.3,-3.1,30.28,South,180,2.0,2.0,22,0.00,,BKN250,0.00,VWS V14.01,2013-12-01 12:36:00,
2013-12-01 07:41:00,31.5,-3.9,30.28,South,180,2.0,2.0,21,0.00,,BKN250,0.00,VWS V14.01,2013-12-01 12:41:00,
2013-12-01 07:46:00,31.7,-3.8,30.28,South,180,2.0,2.0,21,0.00,,BKN250,0.00,VWS V14.01,2013-12-01 12:46:00,
2013-12-01 07:51:00,31.9,-4.6,30.28,South,180,2.0,2.0,20,0.00,,BKN250,0.00,VWS V14.01,2013-12-01 12:51:00,
2013-12-01 07:56:00,32.0,-4.5,30.28,South,180,2.0,2.0,20,0.00,,BKN250,0.00,VWS V14.01,2013-12-01 12:56:00,
2013-12-01 08:01:00,32.4,-4.2,30.28,South,180,2.0,2.0,20,0.00,,BKN250,0.00,VWS V14.01,2013-12-01 13:01:00,
2013-12-01 08:06:00,32.8,-3.8,30.28,South,180,2.0,2.0,20,0.00,,BKN250,0.00,VWS V14.01,2013-12-01 13:06:00,
2013-12-01 08:11:00,32.8,-3.8,30.28,South,180,2.0,2.0,20,0.00,,BKN250,0.00,VWS V14.01,2013-12-01 13:11:00,
2013-12-01 08:16:00,33.1,-7.0,30.27,SSE,158,2.0,2.0,17,0.00,,BKN250,0.00,VWS V14.01,2013-12-01 13:16:00,
2013-12-01 08:21:00,33.5,-7.9,30.27,SSE,158,2.0,2.0,16,0.00,,BKN250,0.00,VWS V14.01,2013-12-01 13:21:00,
2013-12-01 08:26:00,33.8,-6.4,30.27,SSE,158,2.0,2.0,17,0.00,,BKN250,0.00,VWS V14.01,2013-12-01 13:26:00,
2013-12-01 08:31:00,34.4,-5.9,30.27,SSE,158,2.0,2.0,17,0.00,,BKN250,0.00,VWS V14.01,2013-12-01 13:31:00,
2013-12-01 08:36:00,34.7,-2.3,30.27,SE,135,2.0,2.0,20,0.00,,BKN250,0.00,VWS V14.01,2013-12-01 13:36:00,
2013-12-01 08:41:00,35.3,-0.7,30.27,SE,135,2.0,2.0,21,0.00,,BKN250,0.00,VWS V14.01,2013-12-01 13:41:00,
2013-12-01 08:46:00,35.6,1.5,30.27,SE,135,2.0,2.0,23,0.00,,BKN250,0.00,VWS V14.01,2013-12-01 13:46:00,
2013-12-01 08:51:00,36.2,2.9,30.27,SE,135,2.0,2.0,24,0.00,,BKN250,0.00,VWS V14.01,2013-12-01 13:51:00,
2013-12-01 08:56:00,36.5,4.9,30.27,SE,135,2.0,2.0,26,0.00,,SCT250,0.00,VWS V14.01,2013-12-01 13:56:00,
2013-12-01 09:01:00,37.1,7.8,30.27,ENE,68,2.2,2.4,29,0.00,,SCT250,0.00,VWS V14.01,2013-12-01 14:01:00,
2013-12-01 09:06:00,37.4,8.8,30.28,ESE,112,2.0,2.0,30,0.00,,SCT250,0.00,VWS V14.01,2013-12-01 14:06:00,
2013-12-01 09:11:00,37.8,9.2,30.27,ESE,112,2.0,2.0,30,0.00,,SCT250,0.00,VWS V14.01,2013-12-01 14:11:00,
2013-12-01 09:16:00,38.5,9.0,30.27,ESE,112,2.0,2.0,29,0.00,,SCT250,0.00,VWS V14.01,2013-12-01 14:16:00,
2013-12-01 09:21:00,39.2,12.5,30.27,ESE,112,2.0,2.0,33,0.00,,SCT250,0.00,VWS V14.01,2013-12-01 14:21:00,
2013-12-01 09:26:00,39.4,15.9,30.28,ESE,112,2.0,2.0,38,0.00,,SCT250,0.00,VWS V14.01,2013-12-01 14:26:00,
2013-12-01 09:31:00,39.6,18.4,30.28,ESE,112,2.0,2.0,42,0.00,,SCT250,0.00,VWS V14.01,2013-12-01 14:31:00,
2013-12-01 09:36:00,40.0,19.3,30.28,ESE,112,2.0,2.0,43,0.00,,SCT250,0.00,VWS V14.01,2013-12-01 14:36:00,
2013-12-01 09:41:00,40.3,20.1,30.28,ESE,112,2.0,2.0,44,0.00,,SCT250,0.00,VWS V14.01,2013-12-01 14:41:00,
2013-12-01 09:46:00,40.7,20.5,30.28,ESE,112,2.0,2.0,44,0.00,,SCT250,0.00,VWS V14.01,2013-12-01 14:46:00,
2013-12-01 09:51:00,41.2,22.5,30.28,ESE,112,2.0,2.0,47,0.00,,SCT250,0.00,VWS V14.01,2013-12-01 14:51:00,
2013-12-01 09:56:00,41.6,24.4,30.28,ESE,112,2.0,2.0,50,0.00,,SCT250,0.00,VWS V14.01,2013-12-01 14:56:00,
2013-12-01 10:01:00,42.5,25.2,30.28,ESE,112,2.0,2.0,50,0.00,,SCT250,0.00,VWS V14.01,2013-12-01 15:01:00,
2013-12-01 10:06:00,43.0,24.7,30.28,ESE,112,2.0,2.0,48,0.00,,SCT250,0.00,VWS V14.01,2013-12-01 15:06:00,
2013-12-01 10:11:00,43.2,25.8,30.28,ESE,112,2.0,2.0,50,0.00,,SCT250,0.00,VWS V14.01,2013-12-01 15:11:00,
2013-12-01 10:16:00,43.6,26.2,30.28,ESE,112,2.0,2.0,50,0.00,,SCT250,0.00,VWS V14.01,2013-12-01 15:16:00,
2013-12-01 10:21:00,43.7,27.7,30.28,ESE,112,2.0,2.0,53,0.00,,SCT250,0.00,VWS V14.01,2013-12-01 15:21:00,
2013-12-01 10:26:00,43.9,27.9,30.28,ESE,112,2.0,2.0,53,0.00,,SCT250,0.00,VWS V14.01,2013-12-01 15:26:00,
2013-12-01 10:31:00,44.3,28.3,30.28,SW,225,2.0,2.0,53,0.00,,SCT250,0.00,VWS V14.01,2013-12-01 15:31:00,
2013-12-01 10:36:00,44.6,28.5,30.28,SSW,202,2.2,2.2,53,0.00,,SCT250,0.00,VWS V14.01,2013-12-01 15:36:00,
2013-12-01 10:41:00,44.8,28.7,30.27,SSW,202,2.2,2.2,53,0.00,,SCT250,0.00,VWS V14.01,2013-12-01 15:41:00,
2013-12-01 10:46:00,45.0,29.4,30.27,SSW,202,2.2,2.2,54,0.00,,SCT250,0.00,VWS V14.01,2013-12-01 15:46:00,
2013-12-01 10:51:00,45.5,30.3,30.26,SSW,202,2.2,2.2,55,0.00,,SCT250,0.00,VWS V14.01,2013-12-01 15:51:00,
2013-12-01 10:56:00,45.9,31.5,30.26,SSW,202,2.2,2.2,57,0.00,,SCT250,0.00,VWS V14.01,2013-12-01 15:56:00,
2013-12-01 11:01:00,46.6,31.8,30.26,SSW,202,2.2,2.2,56,0.00,,SCT250,0.00,VWS V14.01,2013-12-01 16:01:00,
2013-12-01 11:06:00,47.2,32.8,30.26,SSW,202,2.2,2.2,57,0.00,,SCT250,0.00,VWS V14.01,2013-12-01 16:06:00,
2013-12-01 11:11:00,47.7,33.2,30.25,SSW,202,2.2,2.2,57,0.00,,SCT250,0.00,VWS V14.01,2013-12-01 16:11:00,
2013-12-01 11:15:00,48.2,33.7,30.25,SSW,202,2.2,2.2,57,0.00,,SCT250,0.00,VWS V14.01,2013-12-01 16:15:00,
2013-12-01 11:20:00,49.0,34.9,30.25,SSW,202,2.2,2.2,58,0.00,,SCT250,0.00,VWS V14.01,2013-12-01 16:20:00,
2013-12-01 11:25:00,49.3,34.7,30.24,SSW,202,2.2,2.2,57,0.00,,SCT250,0.00,VWS V14.01,2013-12-01 16:25:00,
2013-12-01 11:30:00,49.9,35.7,30.24,SSW,202,2.2,2.2,58,0.00,,SCT250,0.00,VWS V14.01,2013-12-01 16:30:00,
2013-12-01 11:35:00,50.4,34.9,30.23,SSW,202,2.2,2.2,55,0.00,,SCT250,0.00,VWS V14.01,2013-12-01 16:35:00,
2013-12-01 11:40:00,50.8,36.1,30.23,SSW,202,2.2,2.2,57,0.00,,SCT250,0.00,VWS V14.01,2013-12-01 16:40:00,
2013-12-01 11:45:00,51.1,36.4,30.22,SSW,202,2.2,2.2,57,0.00,,SCT250,0.00,VWS V14.01,2013-12-01 16:45:00,
2013-12-01 11:50:00,51.5,36.8,30.22,SSW,202,2.2,2.2,57,0.00,,SCT250,0.00,VWS V14.01,2013-12-01 16:50:00,
2013-12-01 11:55:00,51.5,36.8,30.21,East,90,2.9,2.9,57,0.00,,SCT250,0.00,VWS V14.01,2013-12-01 16:55:00,
2013-12-01 12:00:00,51.5,36.8,30.21,East,90,2.9,2.9,57,0.00,,SCT250,0.00,VWS V14.01,2013-12-01 17:00:00,
2013-12-01 12:05:00,51.7,37.4,30.21,East,90,2.9,2.9,58,0.00,,SCT250,0.00,VWS V14.01,2013-12-01 17:05:00,
2013-12-01 12:10:00,51.8,36.6,30.20,SE,135,2.9,2.9,56,0.00,,SCT250,0.00,VWS V14.01,2013-12-01 17:10:00,
2013-12-01 12:15:00,52.2,36.5,30.20,SSE,158,3.3,3.3,55,0.00,,SCT250,0.00,VWS V14.01,2013-12-01 17:15:00,
2013-12-01 12:20:00,52.7,37.5,30.20,SSE,158,2.4,2.4,56,0.00,,SCT250,0.00,VWS V14.01,2013-12-01 17:20:00,
2013-12-01 12:25:00,52.9,37.7,30.19,SSE,158,2.4,2.4,56,0.00,,SCT250,0.00,VWS V14.01,2013-12-01 17:25:00,
2013-12-01 12:30:00,53.5,38.2,30.19,SSE,158,2.4,2.4,56,0.00,,SCT250,0.00,VWS V14.01,2013-12-01 17:30:00,
2013-12-01 12:35:00,53.8,38.5,30.18,SSE,158,2.4,2.4,56,0.00,,SCT250,0.00,VWS V14.01,2013-12-01 17:35:00,
2013-12-01 12:40:00,54.4,39.0,30.18,SSE,158,2.4,2.4,56,0.00,,SCT250,0.00,VWS V14.01,2013-12-01 17:40:00,
2013-12-01 12:45:00,54.4,39.0,30.18,SSE,158,2.4,2.4,56,0.00,,SCT250,0.00,VWS V14.01,2013-12-01 17:45:00,
2013-12-01 12:50:00,54.4,38.6,30.18,SSE,158,2.4,2.4,55,0.00,,SCT250,0.00,VWS V14.01,2013-12-01 17:50:00,
2013-12-01 12:55:00,54.4,38.6,30.17,SSE,158,2.4,2.4,55,0.00,,SCT250,0.00,VWS V14.01,2013-12-01 17:55:00,
2013-12-01 13:00:00,54.5,38.2,30.17,SSE,158,2.4,2.4,54,0.00,,SCT130,0.00,VWS V14.01,2013-12-01 18:00:00,
2013-12-01 13:05:00,54.7,38.4,30.17,SSE,158,2.4,2.4,54,0.00,,SCT130,0.00,VWS V14.01,2013-12-01 18:05:00,
2013-12-01 13:10:00,54.7,38.4,30.17,SSE,158,2.4,2.4,54,0.00,,SCT130,0.00,VWS V14.01,2013-12-01 18:10:00,
2013-12-01 13:15:00,54.9,38.6,30.17,SSE,158,2.4,2.4,54,0.00,,SCT130,0.00,VWS V14.01,2013-12-01 18:15:00,
2013-12-01 13:20:00,55.1,39.2,30.16,SSE,158,2.4,2.4,55,0.00,,SCT130,0.00,VWS V14.01,2013-12-01 18:20:00,
2013-12-01 13:25:00,55.4,39.0,30.16,SSE,158,2.4,2.4,54,0.00,,SCT130,0.00,VWS V14.01,2013-12-01 18:25:00,
2013-12-01 13:30:00,55.8,39.4,30.16,SSE,158,2.4,2.4,54,0.00,,SCT130,0.00,VWS V14.01,2013-12-01 18:30:00,
2013-12-01 13:35:00,56.2,39.3,30.15,SSE,158,2.4,2.4,53,0.00,,SCT130,0.00,VWS V14.01,2013-12-01 18:35:00,
2013-12-01 13:40:00,56.5,40.1,30.15,SSW,202,2.9,2.9,54,0.00,,SCT130,0.00,VWS V14.01,2013-12-01 18:40:00,
2013-12-01 13:45:00,56.7,39.8,30.15,West,270,5.4,5.4,53,0.00,,SCT130,0.00,VWS V14.01,2013-12-01 18:45:00,
2013-12-01 13:50:00,56.9,40.0,30.15,WSW,248,6.5,6.5,53,0.00,,SCT130,0.00,VWS V14.01,2013-12-01 18:50:00,
2013-12-01 13:55:00,57.2,40.7,30.15,SSW,202,2.4,2.4,54,0.00,,SCT130,0.00,VWS V14.01,2013-12-01 18:55:00,
2013-12-01 14:00:00,56.9,40.0,30.14,SSW,202,2.4,2.4,53,0.00,,SCT055,0.00,VWS V14.01,2013-12-01 19:00:00,
2013-12-01 14:05:00,56.9,40.4,30.14,SSW,202,2.4,2.4,54,0.00,,SCT055,0.00,VWS V14.01,2013-12-01 19:05:00,
2013-12-01 14:11:00,56.7,39.3,30.14,SSW,202,2.4,2.4,52,0.00,,SCT055,0.00,VWS V14.01,2013-12-01 19:11:00,
2013-12-01 14:16:00,56.9,40.0,30.14,SSW,202,2.4,2.4,53,0.00,,SCT055,0.00,VWS V14.01,2013-12-01 19:16:00,
2013-12-01 14:21:00,56.9,40.4,30.13,SSW,202,2.4,2.4,54,0.00,,SCT055,0.00,VWS V14.01,2013-12-01 19:21:00,
2013-12-01 14:26:00,56.9,39.5,30.13,SSW,202,2.4,2.4,52,0.00,,SCT055,0.00,VWS V14.01,2013-12-01 19:26:00,
2013-12-01 14:31:00,56.7,39.8,30.13,SSW,202,2.4,2.4,53,0.00,,SCT055,0.00,VWS V14.01,2013-12-01 19:31:00,
2013-12-01 14:36:00,56.9,40.0,30.13,SSW,202,2.4,2.4,53,0.00,,SCT055,0.00,VWS V14.01,2013-12-01 19:36:00,
2013-12-01 14:38:00,57.1,40.6,30.13,SSW,202,2.4,2.4,54,0.00,,SCT055,0.00,VWS V14.01,2013-12-01 19:38:00,
2013-12-01 14:43:00,57.1,40.2,30.12,SSW,202,2.4,2.4,53,0.00,,SCT055,0.00,VWS V14.01,2013-12-01 19:43:00,
2013-12-01 14:48:00,57.2,40.2,30.12,SSW,202,2.4,2.4,53,0.00,,SCT055,0.00,VWS V14.01,2013-12-01 19:48:00,
2013-12-01 14:53:00,57.1,40.2,30.12,SSW,202,2.4,2.4,53,0.00,,SCT055,0.00,VWS V14.01,2013-12-01 19:53:00,
2013-12-01 14:58:00,57.2,40.7,30.12,SSW,202,2.4,2.4,54,0.00,,SCT200,0.00,VWS V14.01,2013-12-01 19:58:00,
2013-12-01 15:03:00,57.1,40.2,30.12,SSW,202,2.4,2.4,53,0.00,,SCT200,0.00,VWS V14.01,2013-12-01 20:03:00,
2013-12-01 15:08:00,56.9,40.4,30.12,SSW,202,2.4,2.4,54,0.00,,SCT200,0.00,VWS V14.01,2013-12-01 20:08:00,
2013-12-01 15:13:00,56.9,40.4,30.12,SSW,202,2.4,2.4,54,0.00,,SCT200,0.00,VWS V14.01,2013-12-01 20:13:00,
2013-12-01 15:18:00,56.9,40.4,30.12,SSW,202,2.4,2.4,54,0.00,,SCT200,0.00,VWS V14.01,2013-12-01 20:18:00,
2013-12-01 15:23:00,57.1,40.6,30.11,SSW,202,2.4,2.4,54,0.00,,SCT200,0.00,VWS V14.01,2013-12-01 20:23:00,
2013-12-01 15:28:00,57.1,40.6,30.11,SSW,202,2.4,2.4,54,0.00,,SCT200,0.00,VWS V14.01,2013-12-01 20:28:00,
2013-12-01 15:33:00,56.9,40.4,30.11,SSW,202,2.4,2.4,54,0.00,,SCT200,0.00,VWS V14.01,2013-12-01 20:33:00,
2013-12-01 15:38:00,56.7,40.7,30.11,SSW,202,2.4,2.4,55,0.00,,SCT200,0.00,VWS V14.01,2013-12-01 20:38:00,
2013-12-01 15:43:00,56.5,40.5,30.10,SSW,202,2.4,2.4,55,0.00,,SCT200,0.00,VWS V14.01,2013-12-01 20:43:00,
2013-12-01 15:48:00,56.5,40.5,30.10,SSW,202,2.4,2.4,55,0.00,,SCT200,0.00,VWS V14.01,2013-12-01 20:48:00,
2013-12-01 15:53:00,56.3,40.4,30.10,SSW,202,2.4,2.4,55,0.00,,SCT200,0.00,VWS V14.01,2013-12-01 20:53:00,
2013-12-01 15:58:00,56.2,40.3,30.10,SSW,202,2.4,2.4,55,0.00,,SCT250,0.00,VWS V14.01,2013-12-01 20:58:00,
2013-12-01 16:03:00,56.0,40.1,30.10,SSW,202,2.4,2.4,55,0.00,,SCT250,0.00,VWS V14.01,2013-12-01 21:03:00,
2013-12-01 16:08:00,55.8,39.9,30.10,SSW,202,2.4,2.4,55,0.00,,SCT250,0.00,VWS V14.01,2013-12-01 21:08:00,
2013-12-01 16:13:00,55.4,40.0,30.10,SSW,202,2.4,2.4,56,0.00,,SCT250,0.00,VWS V14.01,2013-12-01 21:13:00,
2013-12-01 16:18:00,55.1,39.7,30.10,SSW,202,2.4,2.4,56,0.00,,SCT250,0.00,VWS V14.01,2013-12-01 21:18:00,
2013-12-01 16:23:00,54.9,39.5,30.10,SSW,202,2.4,2.4,56,0.00,,SCT250,0.00,VWS V14.01,2013-12-01 21:23:00,
2013-12-01 16:28:00,54.5,39.1,30.10,SSW,202,2.4,2.4,56,0.00,,SCT250,0.00,VWS V14.01,2013-12-01 21:28:00,
2013-12-01 16:33:00,54.2,39.3,30.10,SSW,202,2.4,2.4,57,0.00,,SCT250,0.00,VWS V14.01,2013-12-01 21:33:00,
2013-12-01 16:38:00,54.0,39.1,30.09,SSW,202,2.4,2.4,57,0.00,,SCT250,0.00,VWS V14.01,2013-12-01 21:38:00,
2013-12-01 16:43:00,53.6,38.8,30.10,SSW,202,2.4,2.4,57,0.00,,SCT250,0.00,VWS V14.01,2013-12-01 21:43:00,
2013-12-01 16:48:00,53.6,38.8,30.10,SSW,202,2.4,2.4,57,0.00,,SCT250,0.00,VWS V14.01,2013-12-01 21:48:00,
2013-12-01 16:53:00,53.3,38.9,30.10,SSW,202,2.4,2.4,58,0.00,,SCT250,0.00,VWS V14.01,2013-12-01 21:53:00,
2013-12-01 16:58:00,52.9,38.5,30.09,SSW,202,2.4,2.4,58,0.00,,SCT250,0.00,VWS V14.01,2013-12-01 21:58:00,
2013-12-01 17:03:00,52.6,38.3,30.09,SSW,202,2.4,2.4,58,0.00,,SCT250,0.00,VWS V14.01,2013-12-01 22:03:00,
2013-12-01 17:08:00,52.2,37.9,30.09,SSW,202,2.4,2.4,58,0.00,,SCT250,0.00,VWS V14.01,2013-12-01 22:08:00,
2013-12-01 17:13:00,51.8,37.5,30.09,SSW,202,2.4,2.4,58,0.00,,SCT250,0.00,VWS V14.01,2013-12-01 22:13:00,
2013-12-01 17:18:00,51.3,37.5,30.09,SSW,202,2.4,2.4,59,0.00,,SCT250,0.00,VWS V14.01,2013-12-01 22:18:00,
2013-12-01 17:23:00,50.8,37.0,30.09,SSW,202,2.4,2.4,59,0.00,,SCT250,0.00,VWS V14.01,2013-12-01 22:23:00,
2013-12-01 17:28:00,50.4,36.6,30.09,SSW,202,2.4,2.4,59,0.00,,SCT250,0.00,VWS V14.01,2013-12-01 22:28:00,
2013-12-01 17:33:00,50.0,36.2,30.09,SSW,202,2.4,2.4,59,0.00,,SCT250,0.00,VWS V14.01,2013-12-01 22:33:00,
2013-12-01 17:37:00,49.7,36.0,30.09,SSW,202,2.4,2.4,59,0.00,,SCT250,0.00,VWS V14.01,2013-12-01 22:37:00,
2013-12-01 17:42:00,49.3,35.6,30.09,SSW,202,2.4,2.4,59,0.00,,SCT250,0.00,VWS V14.01,2013-12-01 22:42:00,
2013-12-01 17:47:00,49.0,35.3,30.09,SSW,202,2.0,2.0,59,0.00,,SCT250,0.00,VWS V14.01,2013-12-01 22:47:00,
2013-12-01 17:52:00,48.6,34.5,30.09,SSW,202,2.0,2.0,58,0.00,,SCT250,0.00,VWS V14.01,2013-12-01 22:52:00,
2013-12-01 17:58:00,48.2,34.1,30.09,SSW,202,2.0,2.0,58,0.00,,SCT250,0.00,VWS V14.01,2013-12-01 22:58:00,
2013-12-01 18:03:00,47.9,33.8,30.08,SSW,202,2.0,2.0,58,0.00,,SCT250,0.00,VWS V14.01,2013-12-01 23:03:00,
2013-12-01 18:08:00,47.5,33.5,30.08,SSW,202,2.0,2.0,58,0.00,,SCT250,0.00,VWS V14.01,2013-12-01 23:08:00,
2013-12-01 18:13:00,47.3,32.8,30.08,SSW,202,2.0,2.0,57,0.00,,SCT250,0.00,VWS V14.01,2013-12-01 23:13:00,
2013-12-01 18:17:00,47.2,32.3,30.08,SSW,202,2.0,2.0,56,0.00,,SCT250,0.00,VWS V14.01,2013-12-01 23:17:00,
2013-12-01 18:22:00,46.6,31.8,30.08,SSW,202,2.0,2.0,56,0.00,,SCT250,0.00,VWS V14.01,2013-12-01 23:22:00,
2013-12-01 18:27:00,46.3,31.0,30.08,SSW,202,2.0,2.0,55,0.00,,SCT250,0.00,VWS V14.01,2013-12-01 23:27:00,
2013-12-01 18:32:00,46.1,30.9,30.08,SSW,202,2.0,2.0,55,0.00,,SCT250,0.00,VWS V14.01,2013-12-01 23:32:00,
2013-12-01 18:37:00,45.7,30.0,30.09,SSW,202,2.0,2.0,54,0.00,,SCT250,0.00,VWS V14.01,2013-12-01 23:37:00,
2013-12-01 18:42:00,45.5,29.8,30.08,SSW,202,2.0,2.0,54,0.00,,SCT250,0.00,VWS V14.01,2013-12-01 23:42:00,
2013-12-01 18:47:00,45.2,28.6,30.09,SSW,202,2.0,2.0,52,0.00,,SCT250,0.00,VWS V14.01,2013-12-01 23:47:00,
2013-12-01 18:52:00,45.0,28.0,30.08,SSW,202,2.0,2.0,51,0.00,,SCT250,0.00,VWS V14.01,2013-12-01 23:52:00,
2013-12-01 18:57:00,45.0,27.0,30.08,SSW,202,2.0,2.0,49,0.00,,BKN200,0.00,VWS V14.01,2013-12-01 23:57:00,
2013-12-01 19:02:00,45.0,27.0,30.08,SSW,202,2.0,2.0,49,0.00,,BKN200,0.00,VWS V14.01,2013-12-02 00:02:00,
2013-12-01 19:07:00,44.6,26.1,30.08,SSW,202,2.0,2.0,48,0.00,,BKN200,0.00,VWS V14.01,2013-12-02 00:07:00,
2013-12-01 19:12:00,44.6,25.6,30.08,SSW,202,2.0,2.0,47,0.00,,BKN200,0.00,VWS V14.01,2013-12-02 00:12:00,
2013-12-01 19:17:00,44.5,24.5,30.08,SSW,202,2.0,2.0,45,0.00,,BKN200,0.00,VWS V14.01,2013-12-02 00:17:00,
2013-12-01 19:22:00,44.5,24.0,30.08,SSW,202,2.0,2.0,44,0.00,,BKN200,0.00,VWS V14.01,2013-12-02 00:22:00,
2013-12-01 19:27:00,44.5,22.9,30.08,SSW,202,2.0,2.0,42,0.00,,BKN200,0.00,VWS V14.01,2013-12-02 00:27:00,
2013-12-01 19:32:00,44.6,21.8,30.08,SSW,202,2.0,2.0,40,0.00,,BKN200,0.00,VWS V14.01,2013-12-02 00:32:00,
2013-12-01 19:37:00,44.8,21.4,30.08,SSW,202,2.0,2.0,39,0.00,,BKN200,0.00,VWS V14.01,2013-12-02 00:37:00,
2013-12-01 19:42:00,45.0,21.5,30.08,SSW,202,2.0,2.0,39,0.00,,BKN200,0.00,VWS V14.01,2013-12-02 00:42:00,
2013-12-01 19:47:00,45.2,21.1,30.08,SSW,202,2.0,2.0,38,0.00,,BKN200,0.00,VWS V14.01,2013-12-02 00:47:00,
2013-12-01 19:52:00,45.2,21.1,30.08,SSW,202,2.0,2.0,38,0.00,,BKN200,0.00,VWS V14.01,2013-12-02 00:52:00,
2013-12-01 19:57:00,45.4,21.3,30.08,SSW,202,2.0,2.0,38,0.00,,BKN034,0.00,VWS V14.01,2013-12-02 00:57:00,
2013-12-01 20:02:00,45.2,21.1,30.08,SSW,202,2.0,2.0,38,0.00,,BKN034,0.00,VWS V14.01,2013-12-02 01:02:00,
2013-12-01 20:07:00,45.2,21.1,30.08,SSW,202,2.0,2.0,38,0.00,,BKN034,0.00,VWS V14.01,2013-12-02 01:07:00,
2013-12-01 20:12:00,45.0,20.3,30.08,SSW,202,2.0,2.0,37,0.00,,BKN034,0.00,VWS V14.01,2013-12-02 01:12:00,
2013-12-01 20:17:00,44.8,19.5,30.07,SSW,202,2.0,2.0,36,0.00,,BKN034,0.00,VWS V14.01,2013-12-02 01:17:00,
2013-12-01 20:22:00,44.6,18.7,30.07,SSW,202,2.0,2.0,35,0.00,,BKN034,0.00,VWS V14.01,2013-12-02 01:22:00,
2013-12-01 20:27:00,44.5,17.2,30.07,SSW,202,2.0,2.0,33,0.00,,BKN034,0.00,VWS V14.01,2013-12-02 01:27:00,
2013-12-01 20:32:00,44.3,17.0,30.07,SSW,202,2.0,2.0,33,0.00,,BKN034,0.00,VWS V14.01,2013-12-02 01:32:00,
2013-12-01 20:37:00,44.3,17.0,30.07,SSW,202,2.0,2.0,33,0.00,,BKN034,0.00,VWS V14.01,2013-12-02 01:37:00,
2013-12-01 20:42:00,44.1,17.5,30.07,SSW,202,2.0,2.0,34,0.00,,BKN034,0.00,VWS V14.01,2013-12-02 01:42:00,
2013-12-01 20:47:00,43.9,16.7,30.07,SSW,202,2.0,2.0,33,0.00,,BKN034,0.00,VWS V14.01,2013-12-02 01:47:00,
2013-12-01 20:52:00,43.6,16.4,30.07,SSW,202,2.0,2.0,33,0.00,,BKN034,0.00,VWS V14.01,2013-12-02 01:52:00,
2013-12-01 20:57:00,43.6,15.7,30.07,SSW,202,2.0,2.0,32,0.00,,SCT070,0.00,VWS V14.01,2013-12-02 01:57:00,
2013-12-01 21:02:00,43.2,14.6,30.07,SSW,202,2.0,2.0,31,0.00,,SCT070,0.00,VWS V14.01,2013-12-02 02:02:00,
2013-12-01 21:07:00,43.0,13.7,30.07,SSW,202,2.0,2.0,30,0.00,,SCT070,0.00,VWS V14.01,2013-12-02 02:07:00,
2013-12-01 21:12:00,42.8,12.0,30.07,SSW,202,2.0,2.0,28,0.00,,SCT070,0.00,VWS V14.01,2013-12-02 02:12:00,
2013-12-01 21:17:00,42.7,11.9,30.07,SSW,202,2.0,2.0,28,0.00,,SCT070,0.00,VWS V14.01,2013-12-02 02:17:00,
2013-12-01 21:22:00,42.5,10.9,30.07,SSW,202,2.0,2.0,27,0.00,,SCT070,0.00,VWS V14.01,2013-12-02 02:22:00,
2013-12-01 21:27:00,42.3,11.5,30.07,SSW,202,2.0,2.0,28,0.00,,SCT070,0.00,VWS V14.01,2013-12-02 02:27:00,
2013-12-01 21:32:00,42.1,7.0,30.07,SSW,202,2.0,2.0,23,0.00,,SCT070,0.00,VWS V14.01,2013-12-02 02:32:00,
2013-12-01 21:37:00,41.9,6.8,30.06,SSW,202,2.0,2.0,23,0.00,,SCT070,0.00,VWS V14.01,2013-12-02 02:37:00,
2013-12-01 21:42:00,41.9,6.8,30.07,SSW,202,2.0,2.0,23,0.00,,SCT070,0.00,VWS V14.01,2013-12-02 02:42:00,
2013-12-01 21:47:00,41.8,5.8,30.06,SSW,202,2.0,2.0,22,0.00,,SCT070,0.00,VWS V14.01,2013-12-02 02:47:00,
2013-12-01 21:52:00,41.6,5.6,30.06,SSW,202,2.0,2.0,22,0.00,,SCT070,0.00,VWS V14.01,2013-12-02 02:52:00,
2013-12-01 21:57:00,41.4,5.4,30.06,SSW,202,2.0,2.0,22,0.00,,SCT040,0.00,VWS V14.01,2013-12-02 02:57:00,
2013-12-01 22:02:00,41.4,5.4,30.06,SSW,202,2.0,2.0,22,0.00,,SCT040,0.00,VWS V14.01,2013-12-02 03:02:00,
2013-12-01 22:07:00,41.4,4.4,30.06,SSW,202,2.0,2.0,21,0.00,,SCT040,0.00,VWS V14.01,2013-12-02 03:07:00,
2013-12-01 22:12:00,41.0,-1.7,30.06,SSW,202,2.0,2.0,16,0.00,,SCT040,0.00,VWS V14.01,2013-12-02 03:12:00,
2013-12-01 22:17:00,40.7,-2.0,30.05,SSW,202,2.0,2.0,16,0.00,,SCT040,0.00,VWS V14.01,2013-12-02 03:17:00,
2013-12-01 22:22:00,40.7,0.5,30.05,SSW,202,2.0,2.0,18,0.00,,SCT040,0.00,VWS V14.01,2013-12-02 03:22:00,
2013-12-01 22:27:00,40.5,-0.9,30.05,SSW,202,2.0,2.0,17,0.00,,SCT040,0.00,VWS V14.01,2013-12-02 03:27:00,
2013-12-01 22:32:00,40.3,-2.3,30.05,SSW,202,2.0,2.0,16,0.00,,SCT040,0.00,VWS V14.01,2013-12-02 03:32:00,
2013-12-01 22:37:00,40.1,-3.8,30.05,SSW,202,2.0,2.0,15,0.00,,SCT040,0.00,VWS V14.01,2013-12-02 03:37:00,
2013-12-01 22:42:00,40.0,-3.9,30.05,SSW,202,2.0,2.0,15,0.00,,SCT040,0.00,VWS V14.01,2013-12-02 03:42:00,
2013-12-01 22:47:00,40.0,-12.2,30.06,SSW,202,2.0,2.0,10,0.00,,SCT040,0.00,VWS V14.01,2013-12-02 03:47:00,
2013-12-01 22:52:00,39.8,-8.7,30.05,SSW,202,2.0,2.0,12,0.00,,SCT040,0.00,VWS V14.01,2013-12-02 03:52:00,
2013-12-01 22:57:00,39.6,-8.8,30.05,SSW,202,2.0,2.0,12,0.00,,SCT250,0.00,VWS V14.01,2013-12-02 03:57:00,
2013-12-01 23:02:00,39.6,-8.8,30.05,SSW,202,2.0,2.0,12,0.00,,SCT250,0.00,VWS V14.01,2013-12-02 04:02:00,
2013-12-01 23:07:00,39.6,-12.5,30.05,SSW,202,2.0,2.0,10,0.00,,SCT250,0.00,VWS V14.01,2013-12-02 04:07:00,
2013-12-01 23:12:00,39.6,-10.6,30.05,SSW,202,2.0,2.0,11,0.00,,SCT250,0.00,VWS V14.01,2013-12-02 04:12:00,
2013-12-01 23:17:00,39.8,-10.4,30.05,SSW,202,2.0,2.0,11,0.00,,SCT250,0.00,VWS V14.01,2013-12-02 04:17:00,
2013-12-01 23:22:00,39.8,-10.4,30.05,SSW,202,2.0,2.0,11,0.00,,SCT250,0.00,VWS V14.01,2013-12-02 04:22:00,
2013-12-01 23:27:00,40.0,-12.2,30.05,SSW,202,2.0,2.0,10,0.00,,SCT250,0.00,VWS V14.01,2013-12-02 04:27:00,
2013-12-01 23:32:00,40.0,-19.2,30.05,SSW,202,2.0,2.0,7,0.00,,SCT250,0.00,VWS V14.01,2013-12-02 04:32:00,
2013-12-01 23:37:00,40.0,-19.2,30.05,SSW,202,2.0,2.0,7,0.00,,SCT250,0.00,VWS V14.01,2013-12-02 04:37:00,
2013-12-01 23:42:00,40.0,-22.1,30.05,SSW,202,2.0,2.0,6,0.00,,SCT250,0.00,VWS V14.01,2013-12-02 04:42:00,
2013-12-01 23:47:00,40.0,-19.2,30.04,SSW,202,2.0,2.0,7,0.00,,SCT250,0.00,VWS V14.01,2013-12-02 04:47:00,
2013-12-01 23:52:00,40.0,-19.2,30.04,SSW,202,2.0,2.0,7,0.00,,SCT250,0.00,VWS V14.01,2013-12-02 04:52:00,
2013-12-01 23:57:00,40.1,-34.8,30.04,SSW,202,2.0,2.0,3,0.00,,OVC250,0.00,VWS V14.01,2013-12-02 04:57:00,